createdAt,value
2019-03-29T00:03:28.632Z,8.20
2019-03-29T00:08:29.738Z,8.20
2019-03-29T00:13:30.920Z,8.20
2019-03-29T00:18:32.019Z,8.10
2019-03-29T00:23:33.120Z,8.00
2019-03-29T00:28:34.240Z,8.10
2019-03-29T00:33:35.407Z,8.20
2019-03-29T00:38:36.508Z,8.50
2019-03-29T00:43:37.656Z,8.90
2019-03-29T00:48:38.750Z,9.00
2019-03-29T00:53:39.839Z,9.10
2019-03-29T00:58:40.968Z,9.50
2019-03-29T01:03:42.069Z,9.40
2019-03-29T01:08:43.360Z,9.50
2019-03-29T01:13:44.465Z,9.50
2019-03-29T01:18:45.556Z,9.40
2019-03-29T01:23:46.643Z,9.40
2019-03-29T01:28:47.754Z,9.60
2019-03-29T01:33:48.864Z,9.60
2019-03-29T01:38:50.542Z,9.50
2019-03-29T01:43:52.250Z,9.40
2019-03-29T01:48:53.331Z,9.40
2019-03-29T01:53:54.440Z,9.50
2019-03-29T01:58:55.559Z,9.40
2019-03-29T02:03:56.650Z,9.40
2019-03-29T02:08:57.748Z,9.40
2019-03-29T02:13:58.851Z,9.30
2019-03-29T02:18:59.931Z,9.30
2019-03-29T02:24:01.033Z,9.20
2019-03-29T02:29:02.439Z,9.20
2019-03-29T02:34:03.515Z,9.20
2019-03-29T02:39:05.222Z,9.10
2019-03-29T02:44:06.591Z,9.10
2019-03-29T02:49:08.828Z,9.10
2019-03-29T02:54:09.922Z,9.10
2019-03-29T02:59:11.052Z,9.00
2019-03-29T03:04:12.172Z,8.90
2019-03-29T03:09:14.698Z,9.00
2019-03-29T03:14:16.082Z,9.10
2019-03-29T03:19:17.386Z,9.10
2019-03-29T03:24:18.461Z,9.00
2019-03-29T03:29:19.631Z,8.80
2019-03-29T03:34:20.912Z,8.60
2019-03-29T03:39:31.663Z,8.30
2019-03-29T03:44:25.172Z,8.20
2019-03-29T03:49:26.289Z,8.10
2019-03-29T03:54:27.488Z,7.90
2019-03-29T03:59:29.709Z,7.80
2019-03-29T04:04:30.896Z,7.80
2019-03-29T04:09:48.511Z,7.70
2019-03-29T04:14:35.013Z,7.60
2019-03-29T04:19:36.111Z,7.80
2019-03-29T04:24:37.203Z,7.80
2019-03-29T04:29:38.304Z,7.60
2019-03-29T04:34:39.396Z,7.50
2019-03-29T04:39:40.499Z,7.60
2019-03-29T04:44:41.601Z,7.40
2019-03-29T04:49:42.795Z,7.40
2019-03-29T04:54:45.050Z,7.90
2019-03-29T04:59:46.160Z,7.40
2019-03-29T05:04:47.266Z,7.60
2019-03-29T05:09:48.364Z,7.60
2019-03-29T05:14:49.444Z,7.60
2019-03-29T05:19:50.627Z,7.50
2019-03-29T05:24:51.725Z,7.30
2019-03-29T05:29:52.819Z,7.30
2019-03-29T05:34:53.921Z,7.20
2019-03-29T05:39:55.007Z,7.50
2019-03-29T05:44:56.125Z,7.60
2019-03-29T05:49:57.218Z,7.70
2019-03-29T05:54:58.663Z,7.60
2019-03-29T05:59:59.775Z,7.70
2019-03-29T06:05:00.865Z,7.90
2019-03-29T06:10:04.258Z,8.00
2019-03-29T06:15:06.082Z,8.10
2019-03-29T06:20:07.477Z,8.10
2019-03-29T06:25:08.772Z,8.10
2019-03-29T06:30:10.095Z,8.20
2019-03-29T06:35:11.487Z,8.30
2019-03-29T06:40:24.013Z,8.40
2019-03-29T06:45:25.136Z,8.50
2019-03-29T06:50:26.227Z,8.80
2019-03-29T06:55:27.331Z,8.90
2019-03-29T07:00:28.454Z,9.00
2019-03-29T07:05:29.645Z,9.00
2019-03-29T07:10:30.751Z,9.10
2019-03-29T07:15:31.870Z,9.20
2019-03-29T07:20:32.959Z,9.30
2019-03-29T07:25:34.060Z,9.30
2019-03-29T07:30:35.147Z,9.40
2019-03-29T07:35:36.243Z,9.50
2019-03-29T07:40:37.345Z,9.60
2019-03-29T07:45:38.470Z,9.70
2019-03-29T07:50:39.569Z,9.90
2019-03-29T07:55:40.640Z,10.00
2019-03-29T08:00:42.524Z,10.30
2019-03-29T08:05:45.169Z,10.40
2019-03-29T08:10:46.493Z,10.60
2019-03-29T08:15:47.559Z,10.70
2019-03-29T08:20:48.655Z,11.00
2019-03-29T08:25:49.746Z,11.60
2019-03-29T08:30:50.856Z,12.00
2019-03-29T08:35:51.947Z,12.80
2019-03-29T08:40:53.049Z,13.40
2019-03-29T08:45:57.349Z,14.60
2019-03-29T08:50:57.463Z,15.10
2019-03-29T08:55:58.576Z,16.10
2019-03-29T09:00:59.696Z,17.10
2019-03-29T09:06:01.096Z,17.20
2019-03-29T09:11:02.197Z,17.90
2019-03-29T09:16:03.287Z,18.30
2019-03-29T09:21:04.531Z,18.60
2019-03-29T09:26:05.774Z,18.80
2019-03-29T09:31:07.005Z,18.90
2019-03-29T09:36:08.166Z,19.80
2019-03-29T09:41:09.610Z,20.00
2019-03-29T09:46:10.721Z,20.80
2019-03-29T09:51:11.838Z,21.50
2019-03-29T09:56:12.951Z,21.00
2019-03-29T10:01:14.103Z,21.40
2019-03-29T10:06:15.562Z,21.80
2019-03-29T10:11:16.797Z,22.50
2019-03-29T10:16:17.897Z,23.00
2019-03-29T10:21:18.983Z,23.30
2019-03-29T10:26:20.096Z,23.40
2019-03-29T10:31:31.958Z,22.60
2019-03-29T10:36:24.478Z,22.20
2019-03-29T10:41:25.715Z,22.90
2019-03-29T10:46:26.831Z,23.40
2019-03-29T10:51:28.043Z,22.40
2019-03-29T10:56:34.387Z,22.40
2019-03-29T11:01:32.252Z,22.20
2019-03-29T11:06:33.357Z,22.70
2019-03-29T11:11:34.422Z,22.60
2019-03-29T11:16:35.536Z,22.60
2019-03-29T11:21:36.653Z,22.10
2019-03-29T11:26:37.759Z,22.80
2019-03-29T11:31:38.942Z,23.20
2019-03-29T11:36:40.039Z,23.20
2019-03-29T11:41:41.144Z,24.20
2019-03-29T11:46:42.255Z,24.70
2019-03-29T11:51:43.360Z,25.10
2019-03-29T11:56:47.456Z,25.70
2019-03-29T12:01:47.546Z,25.30
2019-03-29T12:06:48.886Z,25.60
2019-03-29T12:11:50.024Z,25.70
2019-03-29T12:16:51.149Z,26.60
2019-03-29T12:21:52.239Z,27.10
2019-03-29T12:26:54.987Z,27.00
2019-03-29T12:31:56.355Z,27.20
2019-03-29T12:36:57.443Z,28.20
2019-03-29T12:41:58.551Z,28.40
2019-03-29T12:46:59.682Z,28.20
2019-03-29T12:52:00.774Z,28.70
2019-03-29T12:57:01.909Z,28.80
2019-03-29T13:02:03.536Z,27.30
2019-03-29T13:07:04.643Z,27.40
2019-03-29T13:12:05.955Z,28.00
2019-03-29T13:17:07.089Z,28.80
2019-03-29T13:22:09.402Z,27.70
2019-03-29T13:27:10.516Z,28.70
2019-03-29T13:32:11.631Z,29.80
2019-03-29T13:37:12.825Z,29.70
2019-03-29T13:42:13.935Z,31.10
2019-03-29T13:47:17.790Z,30.50
2019-03-29T13:52:19.032Z,30.30
2019-03-29T13:57:20.172Z,29.60
2019-03-29T14:02:21.300Z,31.30
2019-03-29T14:07:22.403Z,31.10
2019-03-29T14:12:23.505Z,31.10
2019-03-29T14:17:24.657Z,31.30
2019-03-29T14:22:25.916Z,32.60
2019-03-29T14:27:27.083Z,32.20
2019-03-29T14:32:28.194Z,32.60
2019-03-29T14:37:29.317Z,32.60
2019-03-29T14:42:30.416Z,32.90
2019-03-29T14:47:41.263Z,32.10
2019-03-29T14:52:34.831Z,31.30
2019-03-29T14:57:35.937Z,33.20
2019-03-29T15:02:37.107Z,33.60
2019-03-29T15:07:40.212Z,33.70
2019-03-29T15:12:41.314Z,32.40
2019-03-29T15:17:42.408Z,31.10
2019-03-29T15:22:43.631Z,28.40
2019-03-29T15:27:44.724Z,29.00
2019-03-29T15:32:45.942Z,29.00
2019-03-29T15:37:47.045Z,30.00
2019-03-29T15:42:48.179Z,30.20
2019-03-29T15:47:49.325Z,29.70
2019-03-29T15:52:50.418Z,29.90
2019-03-29T15:57:51.544Z,30.50
2019-03-29T16:02:52.696Z,30.90
2019-03-29T16:07:53.889Z,30.20
2019-03-29T16:12:55.007Z,29.60
2019-03-29T16:17:56.128Z,29.30
2019-03-29T16:22:57.275Z,28.80
2019-03-29T16:27:58.387Z,27.50
2019-03-29T16:32:59.594Z,27.30
2019-03-29T16:38:00.713Z,27.40
2019-03-29T16:43:01.823Z,27.00
2019-03-29T16:48:06.396Z,26.20
2019-03-29T16:53:06.332Z,25.70
2019-03-29T16:58:07.630Z,25.40
2019-03-29T17:03:08.757Z,24.50
2019-03-29T17:08:09.868Z,24.00
2019-03-29T17:13:10.973Z,23.20
2019-03-29T17:18:12.067Z,20.90
2019-03-29T17:23:13.195Z,19.00
2019-03-29T17:28:14.467Z,18.10
2019-03-29T17:33:15.602Z,17.80
2019-03-29T17:38:16.777Z,17.60
2019-03-29T17:43:17.906Z,16.90
2019-03-29T17:48:19.128Z,15.70
2019-03-29T17:53:20.216Z,14.70
2019-03-29T17:58:21.407Z,13.90
2019-03-29T18:03:22.535Z,13.30
2019-03-29T18:08:23.632Z,12.90
2019-03-29T18:13:24.729Z,12.40
2019-03-29T18:18:25.853Z,12.00
2019-03-29T18:23:26.952Z,11.50
2019-03-29T18:28:28.064Z,11.20
2019-03-29T18:33:29.369Z,10.80
2019-03-29T18:38:31.399Z,10.70
2019-03-29T18:43:32.490Z,10.50
2019-03-29T18:48:33.709Z,10.20
2019-03-29T18:53:34.827Z,10.00
2019-03-29T18:58:35.976Z,9.90
2019-03-29T19:03:37.191Z,9.70
2019-03-29T19:08:38.400Z,9.50
2019-03-29T19:13:39.567Z,9.30
2019-03-29T19:18:40.688Z,9.20
2019-03-29T19:23:41.812Z,9.00
2019-03-29T19:28:43.098Z,8.90
2019-03-29T19:33:44.212Z,8.80
2019-03-29T19:38:45.316Z,8.60
2019-03-29T19:43:46.434Z,8.40
2019-03-29T19:48:47.564Z,8.40
2019-03-29T19:53:48.757Z,8.50
2019-03-29T19:58:50.103Z,8.70
2019-03-29T20:03:51.302Z,8.10
2019-03-29T20:08:52.391Z,7.90
2019-03-29T20:13:53.500Z,7.70
2019-03-29T20:18:54.606Z,7.50
2019-03-29T20:23:55.783Z,7.30
2019-03-29T20:28:56.885Z,7.20
2019-03-29T20:33:57.991Z,7.30
2019-03-29T20:38:59.312Z,7.10
2019-03-29T20:44:00.524Z,7.40
2019-03-29T20:49:01.702Z,7.10
2019-03-29T20:54:03.056Z,7.10
2019-03-29T20:59:04.156Z,7.50
2019-03-29T21:04:05.294Z,7.70
2019-03-29T21:09:06.884Z,7.70
2019-03-29T21:14:07.998Z,7.60
2019-03-29T21:19:09.116Z,7.60
2019-03-29T21:24:10.240Z,7.70
2019-03-29T21:29:11.539Z,7.70
2019-03-29T21:34:12.729Z,7.80
2019-03-29T21:39:14.548Z,8.30
2019-03-29T21:44:15.677Z,8.70
2019-03-29T21:49:16.825Z,9.00
2019-03-29T21:54:18.037Z,8.40
2019-03-29T21:59:19.144Z,9.00
2019-03-29T22:04:20.287Z,9.10
2019-03-29T22:09:21.382Z,9.20
2019-03-29T22:14:22.503Z,9.10
2019-03-29T22:19:23.667Z,9.10
2019-03-29T22:24:24.850Z,9.00
2019-03-29T22:29:26.294Z,8.80
2019-03-29T22:34:27.625Z,8.50
2019-03-29T22:39:28.732Z,8.20
2019-03-29T22:44:29.834Z,7.90
2019-03-29T22:49:30.941Z,7.60
2019-03-29T22:54:32.053Z,7.30
2019-03-29T22:59:33.165Z,7.10
2019-03-29T23:04:34.290Z,7.20
2019-03-29T23:09:35.385Z,7.40
2019-03-29T23:14:36.491Z,7.70
2019-03-29T23:19:37.712Z,8.20
2019-03-29T23:24:38.844Z,8.50
2019-03-29T23:29:39.933Z,8.80
2019-03-29T23:34:41.036Z,9.00
2019-03-29T23:39:42.135Z,9.00
2019-03-29T23:44:43.231Z,9.20
2019-03-29T23:49:44.347Z,9.50
2019-03-29T23:54:45.459Z,9.40
2019-03-29T23:59:46.558Z,9.60
